Time;durP1;ratioP1;P1;durP2;ratioP2;P2;SDS_P1;SDS_P2;PMS_P1;PMS_P2;Temp;Humidity;BMP_temperature;BMP_pressure;BME280_temperature;BME280_humidity;BME280_pressure;Samples;Min_cycle;Max_cycle;Signal;HPM_P1;HPM_P2
2021/03/25 00:01:48;;;;;;;15.43;9.30;;;5.50;97.90;;;4.68;62.54;101191.09;4977039;28;20074;-52
2021/03/25 00:04:16;;;;;;;18.70;8.63;;;5.40;99.20;;;4.48;63.39;101195.66;4969890;28;20031;-53
2021/03/25 00:06:48;;;;;;;12.93;7.85;;;5.20;99.80;;;4.30;63.94;101196.69;4967641;28;20046;-48
2021/03/25 00:09:27;;;;;;;12.65;7.50;;;5.00;99.90;;;4.21;64.54;101198.06;4983919;28;20030;-46
2021/03/25 00:11:53;;;;;;;11.15;6.95;;;4.90;99.90;;;4.15;64.43;101195.00;4972775;28;20047;-45
2021/03/25 00:14:20;;;;;;;15.38;7.53;;;4.80;99.90;;;4.08;64.68;101189.34;4974890;28;20101;-48
2021/03/25 00:16:46;;;;;;;13.95;7.80;;;4.70;99.90;;;4.08;64.41;101194.50;4974859;28;20138;-56
2021/03/25 00:19:12;;;;;;;16.80;10.05;;;4.70;99.90;;;4.04;64.91;101185.25;4985174;28;20035;-55
2021/03/25 00:21:39;;;;;;;21.42;10.98;;;4.60;99.90;;;4.01;64.80;101188.00;4983473;28;20459;-48
2021/03/25 00:24:07;;;;;;;27.98;10.75;;;4.60;99.90;;;4.00;64.83;101189.75;4988578;28;20522;-53
2021/03/25 00:26:33;;;;;;;18.13;8.57;;;4.60;99.90;;;3.96;64.99;101187.44;4987038;28;20045;-47
2021/03/25 00:29:00;;;;;;;16.73;9.25;;;4.60;99.90;;;3.89;65.54;101191.25;4976320;28;20066;-53
2021/03/25 00:31:26;;;;;;;20.08;10.35;;;4.50;99.90;;;3.78;66.13;101189.25;4970606;28;20046;-56
2021/03/25 00:34:13;;;;;;;20.48;10.80;;;4.40;99.90;;;3.70;66.39;101190.63;4991673;28;20196;-51
2021/03/25 00:36:39;;;;;;;30.33;15.55;;;4.30;99.90;;;3.63;66.76;101193.53;4989693;28;20050;-46
2021/03/25 00:39:11;;;;;;;27.83;15.85;;;4.30;99.90;;;3.54;67.07;101195.75;4991791;28;20038;-43
2021/03/25 00:41:38;;;;;;;28.88;15.38;;;4.20;99.90;;;3.48;67.42;101194.31;4971301;28;20548;-54
2021/03/25 00:44:07;;;;;;;27.02;13.68;;;4.10;99.90;;;3.38;67.79;101198.31;4992753;28;20038;-46
2021/03/25 00:46:34;;;;;;;23.20;13.65;;;4.00;99.90;;;3.35;67.83;101188.16;4978910;28;20049;-51
2021/03/25 00:49:01;;;;;;;23.25;12.60;;;4.00;99.90;;;3.31;68.06;101192.63;4976400;28;20730;-48
2021/03/25 00:51:29;;;;;;;26.90;13.48;;;3.90;99.90;;;3.29;67.89;101191.91;4957263;28;20089;-51
2021/03/25 00:53:55;;;;;;;19.13;11.25;;;3.90;99.90;;;3.38;67.99;101190.56;4982468;28;20050;-49
2021/03/25 00:56:21;;;;;;;20.40;11.13;;;4.00;99.90;;;3.30;68.18;101192.75;4991000;28;20042;-48
2021/03/25 00:58:47;;;;;;;23.80;11.32;;;3.90;99.90;;;3.26;68.38;101186.09;4991251;28;20196;-53
2021/03/25 01:01:13;;;;;;;19.63;10.18;;;3.90;99.90;;;3.24;68.59;101186.16;4978181;28;20038;-51
2021/03/25 01:03:40;;;;;;;18.90;11.13;;;3.80;99.90;;;3.30;68.45;101179.88;4973502;28;20085;-50
2021/03/25 01:06:08;;;;;;;19.30;10.73;;;3.90;99.90;;;3.21;68.54;101183.75;4990387;28;20038;-52
2021/03/25 01:08:36;;;;;;;18.38;10.70;;;3.80;99.90;;;3.15;68.87;101173.78;4972463;28;20455;-50
2021/03/25 01:11:27;;;;;;;20.73;10.57;;;3.80;99.90;;;3.13;69.19;101175.59;4976644;28;20355;-54
2021/03/25 01:13:59;;;;;;;17.67;10.32;;;3.70;99.90;;;3.13;68.91;101185.88;4991380;28;20359;-54
2021/03/25 01:16:34;;;;;;;22.20;11.40;;;3.70;99.90;;;3.05;69.36;101176.91;4988703;28;20533;-45
2021/03/25 01:19:03;;;;;;;19.05;11.35;;;3.70;99.90;;;3.01;69.41;101183.94;4991368;28;20092;-50
2021/03/25 01:21:30;;;;;;;19.73;9.50;;;3.60;99.90;;;2.98;69.47;101179.78;4984525;28;20042;-50
2021/03/25 01:23:56;;;;;;;21.65;9.35;;;3.60;99.90;;;3.02;69.13;101177.88;4991706;28;20030;-44
2021/03/25 01:26:22;;;;;;;15.40;9.00;;;3.60;99.90;;;2.98;69.18;101182.34;4987491;28;20178;-46
2021/03/25 01:28:48;;;;;;;14.35;8.38;;;3.60;99.90;;;2.98;69.15;101184.94;4989791;28;20081;-46
2021/03/25 01:31:14;;;;;;;20.98;9.80;;;3.60;99.90;;;3.02;69.10;101182.19;4990269;28;20038;-49
2021/03/25 01:33:40;;;;;;;17.05;10.07;;;3.60;99.90;;;2.93;69.39;101174.03;4955100;28;20055;-44
2021/03/25 01:36:06;;;;;;;16.50;8.65;;;3.50;99.90;;;2.92;69.75;101177.50;4985572;28;20046;-46
2021/03/25 01:38:32;;;;;;;15.05;8.40;;;3.50;99.90;;;3.09;69.45;101176.66;4991705;28;20034;-56
2021/03/25 01:41:02;;;;;;;11.90;5.72;;;3.60;99.90;;;3.26;69.46;101170.63;4990176;28;20042;-45
2021/03/25 01:43:40;;;;;;;11.65;5.10;;;3.70;99.90;;;3.39;69.48;101161.31;4989531;28;20589;-49
2021/03/25 01:46:28;;;;;;;10.07;4.40;;;3.90;99.90;;;3.57;69.17;101165.50;4987991;28;20045;-51
2021/03/25 01:49:11;;;;;;;10.02;4.68;;;4.00;99.90;;;3.66;68.16;101159.84;4974631;28;20034;-54
2021/03/25 01:52:14;;;;;;;10.60;5.50;;;4.20;99.90;;;3.52;69.52;101169.25;4978176;28;20050;-46
2021/03/25 01:55:24;;;;;;;13.15;7.18;;;4.10;99.90;;;3.22;70.12;101169.13;4972076;28;20144;-54
2021/03/25 01:57:55;;;;;;;13.73;7.80;;;3.90;99.90;;;3.08;69.61;101161.28;4954856;28;20038;-46
2021/03/25 02:00:59;;;;;;;14.10;9.07;;;3.70;99.90;;;3.04;70.48;101168.34;4974849;28;20533;-51
2021/03/25 02:03:49;;;;;;;10.00;6.35;;;3.70;99.90;;;3.10;70.83;101162.88;4989479;28;20418;-49
2021/03/25 02:06:52;;;;;;;11.95;4.80;;;3.70;99.90;;;3.52;69.32;101157.19;4964158;28;20478;-48
2021/03/25 02:09:41;;;;;;;11.32;5.10;;;3.90;99.90;;;3.72;67.84;101155.28;4954281;28;20047;-46
2021/03/25 02:12:30;;;;;;;12.98;6.05;;;4.10;99.90;;;3.69;68.30;101163.19;4974402;28;20494;-50
2021/03/25 02:15:34;;;;;;;12.02;6.63;;;4.20;99.90;;;3.47;68.95;101153.19;4989436;28;20529;-54
2021/03/25 02:18:20;;;;;;;11.07;5.70;;;4.10;99.90;;;3.35;68.51;101149.53;4968320;28;20046;-52
2021/03/25 02:21:15;;;;;;;13.40;6.22;;;4.00;99.90;;;3.27;69.19;101154.28;4972546;28;20049;-50
2021/03/25 02:23:56;;;;;;;12.00;6.07;;;3.90;99.90;;;3.07;69.66;101160.47;4971962;28;20077;-49
2021/03/25 02:26:34;;;;;;;10.82;6.85;;;3.70;99.90;;;3.05;69.57;101161.44;4990429;28;20046;-49
2021/03/25 02:29:37;;;;;;;10.88;7.15;;;3.70;99.90;;;2.98;70.54;101150.63;4986321;28;20197;-46
2021/03/25 02:32:10;;;;;;;12.55;7.28;;;3.60;99.90;;;2.93;69.78;101150.03;4988381;28;20491;-55
2021/03/25 02:34:45;;;;;;;14.45;7.45;;;3.50;99.90;;;2.91;70.09;101150.13;4989253;28;20045;-53
2021/03/25 02:37:34;;;;;;;13.55;6.20;;;3.50;99.90;;;2.93;70.73;101148.28;4966511;28;20517;-49
2021/03/25 02:42:55;;;;;;;;;;;3.50;99.90;;;2.80;72.25;101156.75;5202822;23;20100;-48
2021/03/25 02:45:32;;;;;;;18.17;7.45;;;3.40;99.90;;;2.67;70.92;101152.22;5009257;28;20026;-47
2021/03/25 02:48:11;;;;;;;10.48;6.95;;;3.30;99.90;;;2.84;70.63;101155.66;5008869;28;20179;-50
2021/03/25 02:50:54;;;;;;;12.95;6.35;;;3.30;99.90;;;2.79;70.72;101150.75;5009301;28;20088;-53
2021/03/25 02:53:39;;;;;;;12.60;6.35;;;3.40;99.90;;;2.70;72.27;101151.22;4992458;28;20429;-52
2021/03/25 02:56:42;;;;;;;11.15;6.13;;;3.30;99.90;;;2.64;72.29;101161.81;4991936;28;20086;-47
2021/03/25 02:59:20;;;;;;;14.32;6.95;;;3.20;99.90;;;2.68;71.15;101158.19;5009002;28;20049;-54
2021/03/25 03:01:51;;;;;;;13.60;6.90;;;3.20;99.90;;;2.67;71.34;101161.66;4977705;28;20034;-49
2021/03/25 03:04:25;;;;;;;10.45;6.28;;;3.20;99.90;;;2.49;71.81;101158.25;5009256;28;20033;-51
2021/03/25 03:07:14;;;;;;;7.68;5.25;;;3.10;99.90;;;2.53;72.78;101164.91;4991661;28;20053;-45
2021/03/25 03:09:49;;;;;;;11.30;5.82;;;3.10;99.90;;;2.43;72.47;101158.56;5008926;28;20125;-51
2021/03/25 03:12:24;;;;;;;11.55;6.18;;;3.10;99.90;;;2.38;72.42;101164.84;4991527;28;20037;-47
2021/03/25 03:14:58;;;;;;;13.82;6.13;;;3.00;99.90;;;2.35;72.57;101165.03;4991376;28;20454;-52
2021/03/25 03:17:31;;;;;;;9.57;5.63;;;3.00;99.90;;;2.29;73.18;101166.97;5008701;28;20046;-53
2021/03/25 03:20:23;;;;;;;10.23;5.75;;;2.90;99.90;;;2.26;73.46;101167.13;5008832;28;20126;-43
2021/03/25 03:22:52;;;;;;;9.48;5.05;;;2.90;99.90;;;2.21;72.88;101163.94;5008368;28;20537;-46
2021/03/25 03:25:22;;;;;;;12.63;6.07;;;2.90;99.90;;;2.26;73.07;101172.28;4991226;28;20048;-51
2021/03/25 03:28:18;;;;;;;8.68;5.35;;;2.90;99.90;;;2.31;73.74;101172.88;5008021;28;20111;-51
2021/03/25 03:31:04;;;;;;;10.30;5.80;;;2.90;99.90;;;2.27;73.06;101168.78;4988985;28;20479;-48
2021/03/25 03:33:43;;;;;;;13.20;7.43;;;2.90;99.90;;;2.24;72.94;101168.09;4992419;28;20113;-47
2021/03/25 03:36:15;;;;;;;10.00;5.95;;;2.80;99.90;;;2.22;73.36;101170.75;4991531;28;20073;-47
2021/03/25 03:39:02;;;;;;;14.38;7.10;;;2.80;99.90;;;2.20;73.49;101172.56;5008316;28;20125;-48
2021/03/25 03:41:39;;;;;;;16.55;6.72;;;2.80;99.90;;;2.21;72.98;101170.81;5008036;28;20042;-46
2021/03/25 03:44:10;;;;;;;11.45;7.68;;;2.70;99.90;;;2.20;73.09;101167.41;5007788;28;20037;-48
2021/03/25 03:46:38;;;;;;;16.13;6.93;;;2.80;99.90;;;2.24;73.09;101168.94;4990736;28;20243;-53
2021/03/25 03:49:15;;;;;;;15.13;6.97;;;2.80;99.90;;;2.27;72.99;101173.09;5008017;28;20057;-48
2021/03/25 03:51:57;;;;;;;14.52;6.35;;;2.80;99.90;;;2.36;72.65;101172.66;5007843;28;20084;-45
2021/03/25 03:54:23;;;;;;;12.43;6.03;;;2.90;99.90;;;2.69;71.79;101174.47;5007853;28;20054;-51
2021/03/25 03:57:45;;;;;;;9.23;5.28;;;3.00;99.90;;;3.19;71.82;101179.59;5007806;28;20132;-51
2021/03/25 04:00:44;;;;;;;7.97;4.82;;;3.40;99.90;;;3.39;70.47;101181.94;5014494;28;20046;-48
2021/03/25 04:03:43;;;;;;;6.80;5.00;;;3.80;99.90;;;3.34;70.71;101178.75;4997253;28;20133;-52
2021/03/25 04:06:24;;;;;;;23.20;5.53;;;3.80;99.90;;;3.41;69.96;101182.69;5014297;28;20050;-49
2021/03/25 04:09:18;;;;;;;10.93;5.35;;;4.00;99.90;;;3.38;70.33;101180.25;5014413;28;20061;-47
2021/03/25 04:11:55;;;;;;;7.95;4.57;;;3.90;99.90;;;3.50;69.65;101181.38;4993742;28;20081;-50
2021/03/25 04:14:31;;;;;;;9.00;4.78;;;4.00;99.90;;;3.59;69.62;101173.16;5007202;28;20107;-52
2021/03/25 04:17:06;;;;;;;9.10;4.85;;;4.10;99.90;;;3.60;69.82;101180.81;4997217;28;20038;-50
2021/03/25 04:19:35;;;;;;;10.43;4.63;;;4.10;99.90;;;3.70;69.27;101185.47;5013458;28;20053;-47
2021/03/25 04:22:12;;;;;;;9.90;4.93;;;4.20;99.90;;;3.80;69.18;101184.03;5013171;28;20045;-47
2021/03/25 04:25:07;;;;;;;9.98;5.07;;;4.30;99.90;;;3.76;69.22;101185.97;5014118;28;20503;-53
2021/03/25 04:28:00;;;;;;;8.27;4.47;;;4.30;99.90;;;3.73;69.15;101190.44;5014362;28;20437;-51
2021/03/25 04:30:34;;;;;;;8.25;4.88;;;4.30;99.90;;;3.74;69.36;101189.53;4984250;28;20072;-48
2021/03/25 04:33:00;;;;;;;14.05;5.00;;;4.30;99.90;;;3.72;69.12;101191.38;4997230;28;20040;-50
2021/03/25 04:35:26;;;;;;;9.82;4.93;;;4.30;99.90;;;3.90;68.03;101196.31;5013503;28;20065;-47
2021/03/25 04:37:54;;;;;;;10.70;4.55;;;4.40;99.90;;;4.13;66.91;101196.81;4996736;28;20195;-46
2021/03/25 04:40:37;;;;;;;9.02;4.78;;;4.50;99.90;;;4.08;67.44;101199.66;4993888;28;20034;-47
2021/03/25 04:43:03;;;;;;;16.67;5.65;;;4.60;99.90;;;3.99;67.28;101195.00;4996246;28;20037;-53
2021/03/25 04:45:53;;;;;;;11.40;6.38;;;4.50;99.90;;;3.86;67.69;101196.56;4994439;28;20069;-49
2021/03/25 04:48:23;;;;;;;8.10;4.70;;;4.50;99.90;;;3.72;68.01;101199.09;4979912;28;20073;-50
2021/03/25 04:51:08;;;;;;;15.82;6.57;;;4.30;99.90;;;3.65;68.12;101191.69;4990262;28;20038;-50
2021/03/25 04:53:38;;;;;;;13.07;6.15;;;4.20;99.90;;;3.80;67.65;101195.16;4980334;28;20042;-50
2021/03/25 04:56:26;;;;;;;14.75;6.55;;;4.30;99.90;;;3.72;68.27;101199.94;5012505;28;20492;-49
2021/03/25 04:58:59;;;;;;;8.77;5.97;;;4.30;99.90;;;3.58;68.24;101202.41;4996266;28;20037;-54
2021/03/25 05:01:33;;;;;;;11.52;5.07;;;4.20;99.90;;;3.33;69.20;101198.53;5013022;28;20092;-50
2021/03/25 05:04:05;;;;;;;8.93;5.53;;;4.00;99.90;;;3.22;69.82;101200.88;5013197;28;20030;-49
2021/03/25 05:07:00;;;;;;;9.40;5.35;;;3.90;99.90;;;3.07;70.88;101200.81;5013848;28;20352;-50
2021/03/25 05:09:28;;;;;;;8.25;5.07;;;3.80;99.90;;;2.93;70.51;101201.50;4994385;28;20038;-54
2021/03/25 05:11:56;;;;;;;11.80;5.82;;;3.60;99.90;;;2.92;70.66;101200.69;5010888;28;20018;-49
2021/03/25 05:14:26;;;;;;;15.95;8.30;;;3.60;99.90;;;2.86;71.14;101206.13;4992150;28;20156;-47
2021/03/25 05:17:21;;;;;;;11.95;6.13;;;3.50;99.90;;;2.86;70.90;101206.13;5010607;28;20489;-52
2021/03/25 05:20:01;;;;;;;15.90;8.65;;;3.50;99.90;;;2.89;70.58;101208.56;5009653;28;20042;-54
2021/03/25 05:22:57;;;;;;;11.38;7.05;;;3.50;99.90;;;3.23;69.95;101210.25;5009831;28;20049;-50
2021/03/25 05:26:02;;;;;;;13.77;7.55;;;3.70;99.90;;;3.31;71.98;101209.84;4993411;28;20139;-50
2021/03/25 05:29:00;;;;;;;10.35;6.30;;;3.80;99.90;;;3.76;69.01;101221.22;4981784;28;20091;-50
2021/03/25 05:31:29;;;;;;;14.93;8.05;;;4.10;99.90;;;3.91;67.74;101225.53;5006904;28;20038;-52
2021/03/25 05:34:00;;;;;;;17.23;8.73;;;4.40;99.90;;;5.45;64.45;101225.19;4992863;28;20049;-55
2021/03/25 05:36:26;;;;;;;14.60;7.70;;;5.80;99.90;;;7.16;59.46;101224.50;5009213;28;20156;-50
2021/03/25 05:38:57;;;;;;;13.65;6.32;;;8.00;96.60;;;8.57;55.91;101230.00;4993092;28;20045;-54
2021/03/25 05:41:48;;;;;;;14.57;7.65;;;9.80;89.00;;;9.69;52.64;101226.69;4989058;28;20040;-51
2021/03/25 05:44:28;;;;;;;18.35;6.82;;;11.00;78.10;;;10.48;49.28;101230.75;5008926;28;20140;-49
2021/03/25 05:47:32;;;;;;;12.48;7.28;;;12.10;69.50;;;10.78;48.13;101228.22;5008796;28;20185;-47
2021/03/25 05:50:22;;;;;;;20.20;9.60;;;12.80;63.00;;;10.67;48.14;101230.06;5009551;28;20057;-48
2021/03/25 05:53:21;;;;;;;15.82;10.10;;;13.00;63.30;;;10.81;48.37;101230.59;4992778;28;20034;-47
2021/03/25 05:56:00;;;;;;;12.75;8.10;;;13.80;58.70;;;10.28;49.38;101229.78;5008462;28;20050;-49
2021/03/25 05:58:49;;;;;;;16.02;8.50;;;13.70;58.80;;;10.74;47.29;101237.25;5008678;28;20049;-50
2021/03/25 06:01:38;;;;;;;9.82;6.00;;;13.90;57.10;;;9.91;50.95;101242.28;4991354;28;20039;-52
2021/03/25 06:04:13;;;;;;;9.73;6.60;;;13.70;58.00;;;9.82;49.85;101243.00;4998058;28;20042;-55
2021/03/25 06:07:00;;;;;;;11.87;6.10;;;13.40;57.80;;;9.88;50.10;101240.75;5009103;28;20505;-53
2021/03/25 06:09:51;;;;;;;12.18;6.82;;;13.40;57.10;;;10.40;48.54;101236.56;5008891;28;20457;-48
2021/03/25 06:12:51;;;;;;;13.05;7.28;;;13.90;55.80;;;11.14;47.25;101239.97;4990384;28;20124;-46
2021/03/25 06:15:36;;;;;;;13.00;6.18;;;15.20;53.30;;;11.47;45.89;101240.66;5006570;28;20507;-50
2021/03/25 06:18:55;;;;;;;9.60;6.30;;;15.80;51.00;;;12.05;44.38;101248.69;4990679;28;20560;-51
2021/03/25 06:21:48;;;;;;;7.50;5.90;;;16.50;49.20;;;12.57;43.19;101258.75;5003516;28;20128;-48
2021/03/25 06:24:42;;;;;;;10.18;5.82;;;17.40;46.90;;;12.27;42.74;101251.88;4989830;28;20047;-48
2021/03/25 06:27:42;;;;;;;12.82;6.72;;;16.60;47.10;;;11.88;43.97;101255.38;5000323;28;20038;-46
2021/03/25 06:30:25;;;;;;;10.60;6.30;;;15.20;50.00;;;11.48;44.57;101250.13;4985536;28;20074;-50
2021/03/25 06:32:58;;;;;;;11.00;5.85;;;13.70;53.60;;;10.73;46.98;101251.25;4991522;28;20038;-48
2021/03/25 06:35:59;;;;;;;12.75;6.78;;;12.40;57.50;;;9.36;49.57;101258.75;5009471;28;20030;-46
2021/03/25 06:38:40;;;;;;;13.30;6.30;;;10.90;60.60;;;8.75;51.12;101255.56;4990799;28;20061;-46
2021/03/25 06:41:21;;;;;;;10.00;6.88;;;9.90;63.60;;;8.42;51.73;101270.09;4992398;28;20060;-45
2021/03/25 06:44:13;;;;;;;13.57;6.78;;;9.30;66.00;;;8.39;52.06;101266.88;5002018;28;20081;-47
2021/03/25 06:46:43;;;;;;;17.42;7.40;;;9.20;67.80;;;8.60;52.24;101268.72;4991565;28;20030;-46
2021/03/25 06:49:36;;;;;;;15.70;6.53;;;9.20;68.10;;;8.83;51.43;101268.81;5008831;28;20068;-45
2021/03/25 06:52:21;;;;;;;15.77;6.38;;;9.40;68.50;;;8.54;52.13;101274.38;4993476;28;20037;-47
2021/03/25 06:54:47;;;;;;;12.98;7.15;;;9.30;69.00;;;8.62;52.30;101282.44;5008567;28;20046;-48
2021/03/25 06:57:18;;;;;;;9.50;5.93;;;9.20;69.20;;;8.62;51.71;101276.41;5008916;28;20040;-50
2021/03/25 06:59:46;;;;;;;11.38;6.60;;;9.20;69.30;;;8.74;52.14;101279.88;4990099;28;20046;-48
2021/03/25 07:02:42;;;;;;;13.32;6.43;;;9.30;69.60;;;9.09;50.68;101279.84;5008179;28;20041;-48
2021/03/25 07:05:13;;;;;;;8.95;5.65;;;9.60;68.90;;;8.89;50.87;101287.41;4970512;28;20046;-51
2021/03/25 07:07:43;;;;;;;9.63;5.75;;;9.60;68.30;;;8.94;50.79;101287.88;4991251;28;20038;-49
2021/03/25 07:10:17;;;;;;;9.50;6.35;;;9.90;67.80;;;9.25;49.88;101290.78;4991411;28;20038;-45
2021/03/25 07:12:46;;;;;;;11.32;6.07;;;10.00;67.40;;;9.26;50.01;101292.44;4991154;28;20037;-52
2021/03/25 07:15:26;;;;;;;13.27;6.60;;;9.90;67.70;;;9.25;50.01;101290.78;4990824;28;20412;-46
2021/03/25 07:17:52;;;;;;;13.63;6.88;;;9.80;68.00;;;9.24;50.08;101289.94;5008269;28;20041;-46
2021/03/25 07:20:32;;;;;;;11.43;6.32;;;9.80;68.30;;;9.20;49.97;101290.28;4974578;28;20501;-52
2021/03/25 07:23:15;;;;;;;10.48;5.97;;;9.70;68.20;;;9.40;49.94;101288.78;5007415;28;20034;-48
2021/03/25 07:25:45;;;;;;;13.18;7.18;;;9.80;69.10;;;9.42;50.08;101292.94;5007421;28;20046;-47
2021/03/25 07:28:20;;;;;;;11.98;7.35;;;9.90;69.00;;;9.68;49.37;101293.50;5007397;28;20065;-49
2021/03/25 07:30:55;;;;;;;11.85;6.40;;;10.10;68.40;;;9.72;48.48;101299.31;4991171;28;20049;-50
2021/03/25 07:33:25;;;;;;;12.82;7.50;;;10.30;67.30;;;9.87;48.92;101303.34;4991032;28;20049;-49
2021/03/25 07:36:11;;;;;;;11.02;6.00;;;10.30;67.50;;;10.07;47.35;101299.16;5003195;28;20137;-48
2021/03/25 07:38:40;;;;;;;8.77;5.88;;;10.50;66.60;;;10.23;47.73;101303.06;4988653;28;20150;-46
2021/03/25 07:41:22;;;;;;;11.23;6.00;;;10.60;66.80;;;10.37;47.60;101309.78;5001640;28;20496;-52
2021/03/25 07:43:59;;;;;;;10.13;6.05;;;10.80;66.30;;;10.49;47.27;101300.13;5005530;28;20145;-49
2021/03/25 07:46:42;;;;;;;10.05;5.60;;;10.90;66.40;;;10.56;47.08;101296.91;5007412;28;20069;-48
2021/03/25 07:49:11;;;;;;;12.20;6.00;;;11.10;65.60;;;10.57;46.84;101297.75;5006860;28;20034;-50
2021/03/25 07:51:56;;;;;;;8.25;4.82;;;11.00;65.00;;;10.93;46.89;101302.53;4990039;28;20061;-50
2021/03/25 07:54:40;;;;;;;11.80;6.68;;;11.30;66.50;;;11.21;45.56;101295.88;5007177;28;20037;-47
2021/03/25 07:57:40;;;;;;;10.57;5.65;;;11.60;64.90;;;11.24;45.92;101298.22;5008203;28;20037;-46
2021/03/25 08:00:18;;;;;;;10.27;5.15;;;11.70;64.50;;;11.34;45.51;101300.91;4993710;28;20049;-48
2021/03/25 08:02:45;;;;;;;10.43;6.05;;;11.80;64.00;;;11.52;45.57;101298.50;5007303;28;20049;-51
2021/03/25 08:05:21;;;;;;;9.18;6.07;;;12.00;63.70;;;11.19;45.25;101300.41;4988262;28;20104;-52
2021/03/25 08:07:51;;;;;;;8.95;6.35;;;11.90;62.90;;;11.54;45.26;101300.03;4988864;28;20077;-49
2021/03/25 08:10:40;;;;;;;13.85;6.82;;;12.00;63.20;;;11.74;43.95;101300.13;5007367;28;20128;-51
2021/03/25 08:13:29;;;;;;;11.77;7.18;;;12.20;62.30;;;11.74;43.77;101297.50;5007674;28;20117;-52
2021/03/25 08:16:11;;;;;;;10.65;6.63;;;12.20;61.90;;;11.78;44.05;101301.53;5004435;28;20440;-54
2021/03/25 08:19:03;;;;;;;12.93;6.90;;;12.30;62.50;;;12.11;43.85;101300.38;4989252;28;20046;-49
2021/03/25 08:22:12;;;;;;;12.95;6.65;;;12.40;62.10;;;12.08;43.66;101303.25;4988036;28;20542;-46
2021/03/25 08:25:15;;;;;;;12.68;6.57;;;12.60;61.40;;;12.16;43.21;101303.44;4998595;28;20104;-43
2021/03/25 08:28:33;;;;;;;12.77;7.40;;;12.70;60.90;;;12.51;42.70;101303.75;5004480;28;20042;-48
2021/03/25 08:31:23;;;;;;;12.48;7.20;;;12.80;61.20;;;12.65;42.47;101301.69;4990128;28;20046;-50
2021/03/25 08:34:26;;;;;;;11.90;6.38;;;13.00;60.50;;;12.80;41.77;101302.91;5007293;28;20049;-51
2021/03/25 08:37:48;;;;;;;11.40;6.43;;;13.20;60.10;;;13.01;42.30;101300.13;5007728;28;20038;-50
2021/03/25 08:40:25;;;;;;;10.30;5.90;;;13.40;59.90;;;13.18;41.88;101304.69;5007871;28;20382;-48
2021/03/25 08:43:01;;;;;;;12.68;5.75;;;13.60;59.00;;;13.45;40.83;101302.13;5007200;28;20178;-53
2021/03/25 08:46:00;;;;;;;10.25;5.82;;;13.90;58.60;;;13.52;40.15;101297.97;4991913;28;20149;-48
2021/03/25 08:49:15;;;;;;;13.77;6.18;;;14.00;57.00;;;13.51;38.65;101291.09;5000577;28;20061;-51
2021/03/25 08:51:43;;;;;;;11.05;5.93;;;14.00;57.20;;;13.41;40.74;101292.91;5001749;28;20042;-52
2021/03/25 08:54:40;;;;;;;13.32;6.93;;;13.90;56.40;;;13.55;39.06;101296.88;4993617;28;20057;-50
2021/03/25 08:57:20;;;;;;;16.75;6.65;;;14.00;56.90;;;13.76;38.74;101294.00;5008596;28;20132;-50
2021/03/25 09:00:18;;;;;;;11.57;5.93;;;14.00;56.70;;;14.04;38.91;101289.59;4993651;28;20037;-48
2021/03/25 09:03:15;;;;;;;8.30;5.10;;;14.30;56.30;;;14.54;38.39;101289.97;4995621;28;20041;-53
2021/03/25 09:06:02;;;;;;;8.60;4.68;;;14.60;56.40;;;14.57;38.26;101292.28;4966689;28;20124;-53
2021/03/25 09:08:32;;;;;;;9.38;5.10;;;14.90;54.90;;;14.86;38.27;101289.41;4979266;28;20069;-55
2021/03/25 09:11:08;;;;;;;8.38;5.80;;;15.10;55.10;;;14.56;37.96;101282.78;5003073;28;20043;-44
2021/03/25 09:13:43;;;;;;;7.75;5.55;;;15.00;54.30;;;14.39;37.98;101280.94;4983382;28;20616;-49
2021/03/25 09:16:35;;;;;;;9.00;5.50;;;14.90;54.20;;;14.48;37.64;101280.91;4992922;28;20034;-51
2021/03/25 09:19:15;;;;;;;7.80;5.13;;;14.90;54.70;;;14.91;38.34;101284.53;4990716;28;20277;-55
2021/03/25 09:21:47;;;;;;;11.70;6.18;;;15.20;54.90;;;15.20;37.67;101278.97;5003846;28;20042;-48
2021/03/25 09:24:14;;;;;;;11.02;6.30;;;15.40;54.40;;;15.02;37.54;101283.47;5011526;28;20042;-52
2021/03/25 09:26:40;;;;;;;10.63;6.88;;;15.40;53.20;;;15.15;37.26;101284.69;4991097;28;20082;-50
2021/03/25 09:29:11;;;;;;;14.05;7.43;;;15.50;53.50;;;14.95;37.49;101283.25;5008079;28;20407;-44
2021/03/25 09:31:45;;;;;;;11.35;7.32;;;15.40;53.20;;;15.08;35.83;101280.22;4989897;28;20085;-48
2021/03/25 09:34:11;;;;;;;11.10;7.38;;;15.50;52.60;;;15.22;37.04;101279.63;5007195;28;20050;-51
2021/03/25 09:36:42;;;;;;;11.13;6.50;;;15.50;52.70;;;15.47;36.71;101270.94;4991968;28;20041;-48
2021/03/25 09:39:27;;;;;;;14.95;8.35;;;15.80;52.70;;;15.52;36.30;101276.53;4993725;28;20069;-49
2021/03/25 09:41:56;;;;;;;11.73;7.40;;;15.90;52.30;;;15.67;36.77;101274.16;4991042;28;20112;-49
2021/03/25 09:44:45;;;;;;;11.65;6.82;;;16.00;52.60;;;15.84;35.99;101270.63;4992526;28;20537;-47
2021/03/25 09:47:32;;;;;;;14.00;7.88;;;16.20;52.20;;;15.67;35.43;101266.28;4993166;28;20085;-44
2021/03/25 09:50:01;;;;;;;9.10;6.10;;;16.10;51.90;;;16.08;36.07;101271.66;4997433;28;20422;-49
2021/03/25 09:52:36;;;;;;;13.88;8.10;;;16.30;52.20;;;16.07;36.06;101270.81;5010554;28;20137;-52
2021/03/25 09:55:02;;;;;;;14.27;8.13;;;16.40;51.50;;;15.51;36.08;101263.56;4992206;28;20046;-49
2021/03/25 09:57:31;;;;;;;12.60;6.97;;;16.10;50.40;;;15.60;36.34;101258.19;5011053;28;20396;-51
2021/03/25 10:00:21;;;;;;;12.85;8.15;;;16.00;51.70;;;16.06;34.47;101258.69;5010838;28;20115;-48
2021/03/25 10:02:53;;;;;;;15.07;8.60;;;16.30;51.40;;;16.09;35.92;101263.59;5011231;28;20041;-47
2021/03/25 10:05:25;;;;;;;14.60;9.10;;;16.40;51.20;;;16.16;35.53;101266.41;5009299;28;20486;-46
2021/03/25 10:07:52;;;;;;;15.32;8.57;;;16.50;51.00;;;16.29;35.25;101261.50;5010431;28;20052;-48
2021/03/25 10:10:45;;;;;;;13.85;8.50;;;16.70;50.40;;;15.96;34.50;101254.56;5010770;28;20145;-48
2021/03/25 10:13:17;;;;;;;13.55;8.85;;;16.40;50.20;;;16.27;35.51;101256.41;5009963;28;20040;-51
2021/03/25 10:16:08;;;;;;;21.30;10.73;;;16.60;50.90;;;16.52;33.58;101248.56;5004426;28;20049;-50
2021/03/25 10:18:34;;;;;;;12.82;9.55;;;16.90;49.30;;;16.29;35.05;101247.53;5001544;28;20037;-52
2021/03/25 10:21:15;;;;;;;13.30;8.90;;;16.80;49.10;;;16.13;33.91;101243.06;5009592;28;20065;-55
2021/03/25 10:23:49;;;;;;;12.65;8.00;;;16.60;49.70;;;16.60;34.48;101235.38;5009724;28;20037;-53
2021/03/25 10:26:34;;;;;;;13.57;9.02;;;16.90;50.30;;;16.69;33.15;101237.06;5009965;28;20057;-49
2021/03/25 10:29:09;;;;;;;16.48;9.32;;;17.10;49.40;;;16.29;34.11;101237.03;5007804;28;20141;-46
2021/03/25 10:31:38;;;;;;;14.00;8.85;;;16.80;49.20;;;16.52;34.21;101232.78;5000962;28;20133;-50
2021/03/25 10:34:22;;;;;;;13.32;8.35;;;16.80;49.10;;;16.59;33.78;101234.56;5009285;28;20112;-48
2021/03/25 10:36:57;;;;;;;14.57;8.35;;;16.90;49.10;;;16.95;33.11;101222.88;4992891;28;20062;-50
2021/03/25 10:39:28;;;;;;;9.38;7.28;;;17.10;48.60;;;16.68;33.97;101231.97;4992280;28;20044;-52
2021/03/25 10:41:55;;;;;;;11.85;8.25;;;17.10;48.80;;;16.89;34.04;101225.19;5008957;28;20058;-50
2021/03/25 10:44:33;;;;;;;10.88;7.28;;;17.20;49.00;;;16.95;33.56;101220.25;5008757;28;20033;-53
2021/03/25 10:47:07;;;;;;;10.30;7.32;;;17.20;49.00;;;16.94;33.19;101226.50;5009279;28;20480;-46
2021/03/25 10:49:55;;;;;;;10.02;7.40;;;17.30;49.00;;;17.04;33.10;101216.59;5009361;28;20119;-51
2021/03/25 10:52:28;;;;;;;11.80;7.82;;;17.30;48.60;;;16.95;33.63;101217.63;5009334;28;20129;-47
2021/03/25 10:54:58;;;;;;;12.10;8.43;;;17.30;48.60;;;17.06;33.28;101219.88;5008981;28;20041;-51
2021/03/25 10:57:29;;;;;;;11.48;8.38;;;17.40;48.40;;;17.14;33.15;101217.22;5009258;28;20085;-53
2021/03/25 11:00:04;;;;;;;14.48;9.10;;;17.50;48.40;;;17.14;33.54;101217.22;4991465;28;20061;-50
2021/03/25 11:02:42;;;;;;;12.07;8.82;;;17.40;48.30;;;17.06;33.38;101214.63;5009177;28;20068;-48
2021/03/25 11:05:24;;;;;;;16.10;9.93;;;17.40;48.20;;;16.83;32.60;101214.50;5008305;28;20044;-53
2021/03/25 11:07:56;;;;;;;11.15;8.43;;;17.30;47.10;;;16.56;34.28;101213.84;5007710;28;20388;-52
2021/03/25 11:10:27;;;;;;;13.63;10.23;;;16.90;48.70;;;16.98;33.58;101201.50;5008323;28;20034;-49